Time;durP1;ratioP1;P1;durP2;ratioP2;P2;SDS_P1;SDS_P2;PMS_P1;PMS_P2;Temp;Humidity;BMP_temperature;BMP_pressure;BME280_temperature;BME280_humidity;BME280_pressure;Samples;Min_cycle;Max_cycle;Signal;HPM_P1;HPM_P2
2021/11/28 00:00:17;;;;;;;20.58;11.85;;;;;;;1.08;100.00;99253.69;4869096;29;20044;-74
2021/11/28 00:02:43;;;;;;;18.17;11.52;;;;;;;1.02;100.00;99263.66;4881953;29;20040;-76
2021/11/28 00:05:09;;;;;;;20.10;12.70;;;;;;;1.02;100.00;99255.91;4871894;29;20071;-76
2021/11/28 00:15:15;;;;;;;17.30;11.85;;;;;;;0.97;100.00;99254.53;4876036;29;20363;-76
2021/11/28 00:17:41;;;;;;;22.17;13.27;;;;;;;0.93;100.00;99260.06;4884189;29;20043;-77
2021/11/28 00:20:11;;;;;;;20.25;13.05;;;;;;;0.96;100.00;99259.78;4874981;29;20036;-76
2021/11/28 00:22:39;;;;;;;24.23;14.23;;;;;;;0.89;100.00;99246.56;4903315;29;20037;-75
2021/11/28 00:25:09;;;;;;;22.45;13.30;;;;;;;1.01;100.00;99262.84;4888417;29;20071;-76
2021/11/28 00:27:35;;;;;;;19.67;12.60;;;;;;;0.98;100.00;99268.28;4869875;29;20200;-75
2021/11/28 00:30:03;;;;;;;20.40;12.60;;;;;;;0.93;100.00;99263.44;4867123;29;20048;-75
2021/11/28 00:32:29;;;;;;;17.23;11.63;;;;;;;0.92;100.00;99261.81;4858344;29;20176;-76
2021/11/28 00:34:55;;;;;;;16.02;10.60;;;;;;;0.84;100.00;99274.50;4891029;29;20142;-75
2021/11/28 00:37:21;;;;;;;16.73;10.95;;;;;;;0.83;100.00;99267.72;4874014;29;20037;-74
2021/11/28 00:39:47;;;;;;;15.07;10.65;;;;;;;0.77;100.00;99268.16;4876615;29;20047;-75
2021/11/28 00:42:15;;;;;;;17.08;10.93;;;;;;;0.74;100.00;99265.84;4889900;29;20059;-75
2021/11/28 00:44:41;;;;;;;16.65;10.88;;;;;;;0.68;100.00;99272.31;4867371;29;20043;-76
2021/11/28 00:47:07;;;;;;;17.83;10.63;;;;;;;0.67;100.00;99269.84;4877698;29;20075;-75
2021/11/28 00:49:36;;;;;;;16.75;11.43;;;;;;;0.64;100.00;99273.50;4892870;29;20080;-76
2021/11/28 00:52:02;;;;;;;17.15;11.07;;;;;;;0.70;100.00;99270.44;4878906;29;20045;-75
2021/11/28 00:54:29;;;;;;;16.23;10.45;;;;;;;0.66;100.00;99275.94;4888770;29;20044;-75
2021/11/28 00:56:56;;;;;;;18.38;11.57;;;;;;;0.53;100.00;99266.56;4892794;29;20079;-77
2021/11/28 00:59:22;;;;;;;15.77;11.43;;;;;;;0.60;100.00;99276.41;4888447;29;20041;-75
2021/11/28 01:01:48;;;;;;;17.17;11.23;;;;;;;0.54;100.00;99270.78;4890068;29;20091;-76
2021/11/28 01:04:15;;;;;;;15.68;10.68;;;;;;;0.58;100.00;99273.94;4876383;29;20068;-75
2021/11/28 01:06:44;;;;;;;19.05;12.45;;;;;;;0.47;100.00;99276.53;4872688;29;20051;-76
2021/11/28 01:09:10;;;;;;;20.17;11.63;;;;;;;0.48;100.00;99283.34;4876207;29;20127;-76
2021/11/28 01:11:36;;;;;;;16.60;11.10;;;;;;;0.42;100.00;99284.63;4892786;29;20064;-75
2021/11/28 01:14:03;;;;;;;20.63;12.43;;;;;;;0.46;100.00;99277.47;4863910;29;20040;-76
2021/11/28 01:16:29;;;;;;;20.63;11.60;;;;;;;0.47;100.00;99279.09;4874526;29;20123;-75
2021/11/28 01:18:54;;;;;;;20.30;12.57;;;;;;;0.43;100.00;99281.09;4890343;29;20151;-75
2021/11/28 01:21:23;;;;;;;18.80;12.68;;;;;;;0.46;100.00;99283.47;4888819;29;20123;-76
2021/11/28 01:23:49;;;;;;;19.50;12.73;;;;;;;0.44;100.00;99281.94;4877882;29;20128;-76
2021/11/28 01:26:16;;;;;;;22.73;13.55;;;;;;;0.46;100.00;99291.19;4878708;29;20051;-75
2021/11/28 01:28:42;;;;;;;20.50;12.48;;;;;;;0.45;100.00;99289.53;4877848;29;20411;-77
2021/11/28 01:31:08;;;;;;;25.15;13.05;;;;;;;0.33;100.00;99290.50;4876468;29;20056;-77
2021/11/28 01:33:34;;;;;;;20.35;13.30;;;;;;;0.33;100.00;99295.66;4892839;29;20051;-74
2021/11/28 01:35:59;;;;;;;24.67;13.70;;;;;;;0.30;100.00;99301.88;4893090;29;20569;-77
2021/11/28 01:38:25;;;;;;;19.90;13.40;;;;;;;0.32;100.00;99302.56;4876243;29;20096;-75
2021/11/28 01:40:55;;;;;;;19.67;12.85;;;;;;;0.33;100.00;99305.97;4877597;29;20068;-75
2021/11/28 01:43:21;;;;;;;20.83;13.52;;;;;;;0.32;100.00;99300.00;4883217;29;20491;-76
2021/11/28 01:45:51;;;;;;;19.15;12.98;;;;;;;0.35;100.00;99302.31;4862375;29;20051;-75
2021/11/28 01:48:19;;;;;;;21.38;13.55;;;;;;;0.36;100.00;99305.75;4878573;29;20041;-74
2021/11/28 01:50:49;;;;;;;19.52;12.93;;;;;;;0.36;100.00;99300.59;4896942;29;20047;-75
2021/11/28 01:53:19;;;;;;;21.45;13.13;;;;;;;0.32;100.00;99305.16;4894722;29;20040;-75
2021/11/28 01:55:46;;;;;;;20.27;12.73;;;;;;;0.35;100.00;99301.50;4881536;29;20032;-75
2021/11/28 01:58:20;;;;;;;20.02;12.90;;;;;;;0.31;100.00;99303.50;4871620;29;20048;-76
2021/11/28 02:00:54;;;;;;;19.55;12.73;;;;;;;0.41;100.00;99295.06;4877899;29;20040;-76
2021/11/28 02:03:20;;;;;;;20.95;13.73;;;;;;;0.34;100.00;99300.69;4878484;29;20570;-76
2021/11/28 02:05:50;;;;;;;24.15;14.60;;;;;;;0.30;100.00;99301.03;4876683;29;20042;-77
2021/11/28 02:08:16;;;;;;;21.23;14.27;;;;;;;0.39;100.00;99302.91;4891055;29;20036;-77
2021/11/28 02:10:42;;;;;;;24.05;14.88;;;;;;;0.35;100.00;99310.06;4837189;29;1221043;-76
2021/11/28 02:13:08;;;;;;;23.65;15.80;;;;;;;0.34;100.00;99303.28;4876323;29;20431;-76
2021/11/28 02:15:34;;;;;;;21.45;14.73;;;;;;;0.38;100.00;99291.78;4892182;29;20040;-76
2021/11/28 02:18:01;;;;;;;23.15;14.85;;;;;;;0.39;100.00;99284.84;4878986;29;20036;-76
2021/11/28 02:20:28;;;;;;;20.85;14.80;;;;;;;0.32;100.00;99286.25;4884245;29;20033;-76
2021/11/28 02:22:55;;;;;;;21.52;14.35;;;;;;;0.34;100.00;99302.44;4881672;29;20407;-76
2021/11/28 02:25:24;;;;;;;23.67;15.18;;;;;;;0.30;100.00;99298.44;4879613;29;20029;-76
2021/11/28 02:27:55;;;;;;;23.05;15.15;;;;;;;0.32;100.00;99286.25;4868143;29;20051;-77
2021/11/28 02:30:22;;;;;;;24.40;14.77;;;;;;;0.39;100.00;99295.19;4877939;29;20068;-77
2021/11/28 02:32:49;;;;;;;21.40;13.70;;;;;;;0.35;100.00;99288.63;4895640;29;20047;-76
2021/11/28 02:35:16;;;;;;;24.52;15.13;;;;;;;0.37;100.00;99289.31;4893657;29;20063;-76
2021/11/28 02:37:43;;;;;;;27.30;15.07;;;;;;;0.37;100.00;99295.28;4895470;29;20037;-77
2021/11/28 02:40:12;;;;;;;24.88;15.07;;;;;;;0.34;100.00;99292.13;4869651;29;20503;-77
2021/11/28 02:42:38;;;;;;;22.42;14.50;;;;;;;0.33;100.00;99287.91;4896032;29;20602;-76
2021/11/28 02:45:04;;;;;;;23.08;14.32;;;;;;;0.30;100.00;99291.56;4880227;29;20040;-76
2021/11/28 02:47:30;;;;;;;26.55;14.82;;;;;;;0.34;100.00;99287.81;4895653;29;20103;-77
2021/11/28 02:49:55;;;;;;;23.20;14.27;;;;;;;0.30;100.00;99290.72;4882592;29;20068;-75
2021/11/28 02:52:21;;;;;;;22.40;14.00;;;;;;;0.27;100.00;99288.38;4894468;29;20048;-77
2021/11/28 02:54:47;;;;;;;23.48;14.48;;;;;;;0.23;100.00;99295.53;4880181;29;20159;-77
2021/11/28 02:57:13;;;;;;;24.13;15.50;;;;;;;0.20;100.00;99288.00;4863544;29;20051;-76
2021/11/28 02:59:39;;;;;;;23.50;15.05;;;;;;;0.18;100.00;99282.97;4887875;29;20036;-77
2021/11/28 03:02:07;;;;;;;25.58;14.88;;;;;;;0.22;100.00;99291.28;4880420;29;20055;-77
2021/11/28 03:04:45;;;;;;;25.75;15.38;;;;;;;0.24;100.00;99296.34;4877701;29;20759;-77
2021/11/28 03:07:18;;;;;;;28.83;16.25;;;;;;;0.21;100.00;99292.25;4893036;29;20040;-77
2021/11/28 03:09:44;;;;;;;27.25;15.98;;;;;;;0.24;100.00;99297.16;4874311;29;20040;-76
2021/11/28 03:12:11;;;;;;;32.15;17.25;;;;;;;0.26;100.00;99303.00;4879166;29;20040;-76
2021/11/28 03:14:37;;;;;;;30.23;16.63;;;;;;;0.18;100.00;99292.47;4891562;29;20040;-76
2021/11/28 03:17:04;;;;;;;30.77;17.73;;;;;;;0.17;100.00;99299.41;4878584;29;20033;-76
2021/11/28 03:19:30;;;;;;;31.40;18.25;;;;;;;0.18;100.00;99292.47;4875496;29;20491;-77
2021/11/28 03:21:55;;;;;;;33.45;18.60;;;;;;;0.24;100.00;99293.75;4895717;29;20095;-76
2021/11/28 03:24:21;;;;;;;29.70;16.98;;;;;;;0.23;100.00;99299.84;4894528;29;20112;-77
2021/11/28 03:26:47;;;;;;;31.08;17.27;;;;;;;0.29;100.00;99300.22;4877614;29;20491;-77
2021/11/28 03:29:22;;;;;;;30.42;17.50;;;;;;;0.35;100.00;99304.09;4893230;29;20036;-76
2021/11/28 03:32:06;;;;;;;29.05;17.45;;;;;;;0.41;100.00;99297.66;4890191;29;20475;-76
2021/11/28 03:34:41;;;;;;;30.42;17.88;;;;;;;0.36;100.00;99293.66;4891887;29;20047;-77
2021/11/28 03:37:20;;;;;;;31.13;17.02;;;;;;;0.32;100.00;99287.09;4878358;29;20132;-75
2021/11/28 03:39:46;;;;;;;28.00;16.25;;;;;;;0.37;100.00;99299.63;4907085;29;20119;-76
2021/11/28 03:42:12;;;;;;;31.70;16.52;;;;;;;0.30;100.00;99288.97;4894160;29;20075;-77
2021/11/28 03:44:42;;;;;;;29.58;16.40;;;;;;;0.43;100.00;99299.16;4894944;29;20032;-77
2021/11/28 03:47:11;;;;;;;27.33;15.88;;;;;;;0.43;100.00;99300.94;4907056;29;20032;-76
2021/11/28 03:49:38;;;;;;;28.73;15.93;;;;;;;0.45;100.00;99301.63;4879078;29;20539;-77
2021/11/28 03:52:04;;;;;;;28.02;14.73;;;;;;;0.51;100.00;99299.41;4863739;29;20041;-77
2021/11/28 03:54:30;;;;;;;22.80;13.98;;;;;;;0.49;100.00;99296.13;4896695;29;20041;-75
2021/11/28 03:56:56;;;;;;;21.92;13.85;;;;;;;0.48;100.00;99299.63;4879069;29;20082;-77
2021/11/28 03:59:24;;;;;;;22.30;13.25;;;;;;;0.52;100.00;99300.22;4877038;29;20047;-77
2021/11/28 04:01:50;;;;;;;21.17;13.45;;;;;;;0.52;100.00;99300.22;4879168;29;20470;-76
2021/11/28 04:04:16;;;;;;;21.23;13.73;;;;;;;0.53;100.00;99300.13;4877934;29;20517;-77
2021/11/28 04:07:05;;;;;;;22.70;13.98;;;;;;;0.45;100.00;99294.69;4875708;29;20225;-76
2021/11/28 04:09:32;;;;;;;25.75;14.02;;;;;;;0.49;100.00;99303.88;4877857;29;20416;-75
2021/11/28 04:11:59;;;;;;;24.25;14.27;;;;;;;0.48;100.00;99307.38;4894350;29;20505;-76
2021/11/28 04:14:24;;;;;;;22.63;14.05;;;;;;;0.44;100.00;99302.59;4885684;29;20203;-77
2021/11/28 04:16:50;;;;;;;26.08;15.32;;;;;;;0.44;100.00;99295.66;4878872;29;20081;-77
2021/11/28 04:19:16;;;;;;;27.63;15.40;;;;;;;0.45;100.00;99305.03;4891865;29;20124;-77
2021/11/28 04:21:45;;;;;;;26.88;15.93;;;;;;;0.45;100.00;99302.44;4874573;29;20036;-77
2021/11/28 04:24:13;;;;;;;31.52;15.27;;;;;;;0.48;100.00;99309.97;4892386;29;20044;-77
2021/11/28 04:26:39;;;;;;;28.02;15.55;;;;;;;0.41;100.00;99295.88;4891798;29;20414;-77
2021/11/28 04:29:06;;;;;;;30.98;16.90;;;;;;;0.53;100.00;99301.88;4872333;29;20117;-77
2021/11/28 04:31:33;;;;;;;28.58;16.10;;;;;;;0.51;100.00;99302.00;4889735;29;20453;-75
2021/11/28 04:33:59;;;;;;;31.00;16.90;;;;;;;0.52;100.00;99310.53;4873541;29;20101;-74
2021/11/28 04:36:25;;;;;;;28.45;15.82;;;;;;;0.50;100.00;99300.34;4859770;29;20041;-75
2021/11/28 04:38:50;;;;;;;28.23;16.20;;;;;;;0.53;100.00;99302.69;4876334;29;20128;-74
2021/11/28 04:41:16;;;;;;;26.77;15.98;;;;;;;0.54;100.00;99306.09;4884509;29;20056;-76
2021/11/28 04:43:47;;;;;;;32.85;17.70;;;;;;;0.52;100.00;99311.34;4868394;29;20123;-75
2021/11/28 04:46:13;;;;;;;34.22;17.92;;;;;;;0.54;100.00;99314.63;4884499;29;20046;-75
2021/11/28 04:48:39;;;;;;;31.88;17.38;;;;;;;0.49;100.00;99303.88;4889279;29;20066;-75
2021/11/28 04:51:18;;;;;;;31.95;17.88;;;;;;;0.62;100.00;99311.47;4872141;29;20036;-76
2021/11/28 04:53:43;;;;;;;30.38;17.05;;;;;;;0.56;100.00;99312.75;4864700;29;20098;-76
2021/11/28 04:56:10;;;;;;;30.00;15.95;;;;;;;0.56;100.00;99314.53;4892116;29;20044;-74
2021/11/28 04:58:36;;;;;;;30.50;17.77;;;;;;;0.55;100.00;99315.47;4879667;29;20045;-74
2021/11/28 05:01:02;;;;;;;31.17;17.55;;;;;;;0.55;100.00;99318.06;4877111;29;20045;-76
2021/11/28 05:03:27;;;;;;;31.33;17.52;;;;;;;0.59;100.00;99319.47;4876335;29;20514;-75
2021/11/28 05:06:12;;;;;;;31.17;17.15;;;;;;;0.58;100.00;99323.81;4893500;29;20603;-75
2021/11/28 05:08:56;;;;;;;29.48;16.83;;;;;;;0.63;100.00;99322.63;4887097;29;20040;-75
2021/11/28 05:11:22;;;;;;;28.95;17.17;;;;;;;0.64;100.00;99327.69;4877512;29;20125;-75
2021/11/28 05:13:47;;;;;;;28.58;15.13;;;;;;;0.62;100.00;99334.69;4864905;29;20117;-77
2021/11/28 05:16:13;;;;;;;28.13;17.05;;;;;;;0.63;100.00;99335.53;4878455;29;20048;-76
2021/11/28 05:18:58;;;;;;;29.80;17.73;;;;;;;0.62;100.00;99339.84;4897158;29;20463;-76
2021/11/28 05:21:42;;;;;;;30.02;16.83;;;;;;;0.60;100.00;99336.56;4888865;29;20108;-75
2021/11/28 05:24:08;;;;;;;30.25;16.80;;;;;;;0.62;100.00;99339.03;4893814;29;20111;-76
2021/11/28 05:26:38;;;;;;;30.95;17.65;;;;;;;0.57;100.00;99340.22;4891562;29;20115;-76
2021/11/28 05:29:05;;;;;;;31.95;18.13;;;;;;;0.57;100.00;99327.31;4892277;29;20124;-76
2021/11/28 05:31:32;;;;;;;30.92;17.90;;;;;;;0.70;100.00;99336.72;4875974;29;20564;-76
2021/11/28 05:34:32;;;;;;;31.58;17.63;;;;;;;0.67;100.00;99332.59;4882118;29;20078;-76
2021/11/28 05:37:17;;;;;;;31.33;17.75;;;;;;;0.67;100.00;99336.94;4891732;29;20040;-76
2021/11/28 05:39:46;;;;;;;35.28;18.65;;;;;;;0.71;100.00;99340.91;4878094;29;20040;-76
2021/11/28 05:42:12;;;;;;;30.67;17.67;;;;;;;0.74;100.00;99338.13;4877375;29;20399;-76
2021/11/28 05:44:39;;;;;;;32.70;18.70;;;;;;;0.71;100.00;99340.91;4864908;29;20048;-76
2021/11/28 05:47:23;;;;;;;33.30;18.08;;;;;;;0.73;100.00;99344.22;4890523;29;20128;-76
2021/11/28 05:50:06;;;;;;;;;;;;;;;0.72;100.00;99347.75;4878847;29;20143;-75
2021/11/28 05:52:36;;;;;;;36.05;20.38;;;;;;;0.73;100.00;99336.47;4864605;29;19919;-76
2021/11/28 05:55:03;;;;;;;38.35;19.83;;;;;;;0.66;100.00;99333.53;4893935;29;20041;-76
2021/11/28 05:57:29;;;;;;;33.30;19.08;;;;;;;0.73;100.00;99339.03;4873037;29;20392;-75
2021/11/28 05:59:55;;;;;;;35.35;19.02;;;;;;;0.74;100.00;99336.34;4891577;29;20095;-76
2021/11/28 06:02:20;;;;;;;34.28;18.27;;;;;;;0.77;100.00;99337.88;4877260;29;20495;-75
2021/11/28 06:04:53;;;;;;;38.63;20.45;;;;;;;0.77;100.00;99341.28;4878467;29;20069;-76
2021/11/28 06:07:39;;;;;;;37.17;19.67;;;;;;;0.80;100.00;99342.00;4891897;29;20415;-76
2021/11/28 06:10:06;;;;;;;36.92;19.83;;;;;;;0.77;100.00;99341.28;4878567;29;20064;-75
2021/11/28 06:12:35;;;;;;;38.10;20.08;;;;;;;0.86;100.00;99338.94;4890590;29;20492;-76
2021/11/28 06:15:00;;;;;;;39.30;22.02;;;;;;;0.87;100.00;99345.75;4878229;29;20079;-75
2021/11/28 06:17:38;;;;;;;38.58;20.20;;;;;;;0.85;100.00;99347.59;4878453;29;20048;-76
2021/11/28 06:20:22;;;;;;;39.80;21.17;;;;;;;0.87;100.00;99353.50;4890532;29;20037;-75
2021/11/28 06:23:03;;;;;;;40.33;21.77;;;;;;;0.93;100.00;99350.41;4872449;29;20037;-76
2021/11/28 06:25:29;;;;;;;37.05;21.35;;;;;;;0.95;100.00;99354.53;4876441;29;20092;-75
2021/11/28 06:27:55;;;;;;;38.75;20.90;;;;;;;0.97;100.00;99346.66;4893043;29;20144;-75
2021/11/28 06:30:21;;;;;;;38.38;21.63;;;;;;;0.96;100.00;99347.59;4890113;29;20384;-75
2021/11/28 06:33:05;;;;;;;36.28;20.65;;;;;;;0.95;100.00;99348.53;4891075;29;20036;-75
2021/11/28 06:35:58;;;;;;;39.13;21.38;;;;;;;0.97;100.00;99346.66;4886810;29;20123;-77
2021/11/28 06:38:44;;;;;;;38.97;21.42;;;;;;;1.00;100.00;99341.25;4883568;29;20048;-76
2021/11/28 06:41:49;;;;;;;40.17;23.08;;;;;;;1.00;100.00;99340.41;4843114;29;20046;-76
2021/11/28 06:44:17;;;;;;;39.92;21.63;;;;;;;1.04;100.00;99347.00;4838183;29;20114;-75
2021/11/28 06:46:44;;;;;;;42.13;22.92;;;;;;;1.00;100.00;99349.00;4871729;29;20400;-75
2021/11/28 06:49:10;;;;;;;43.83;22.45;;;;;;;1.09;100.00;99355.19;4891825;29;20044;-77
2021/11/28 06:51:58;;;;;;;36.90;20.35;;;;;;;1.07;100.00;99351.91;4894488;29;20100;-76
2021/11/28 06:54:44;;;;;;;40.42;22.25;;;;;;;1.15;100.00;99359.91;4893657;29;20071;-75
2021/11/28 06:57:10;;;;;;;39.53;21.48;;;;;;;1.12;100.00;99355.78;4881084;29;20078;-75
2021/11/28 06:59:36;;;;;;;38.15;20.92;;;;;;;1.16;100.00;99362.34;4893691;29;20037;-76
2021/11/28 07:02:03;;;;;;;35.08;19.35;;;;;;;1.13;100.00;99362.59;4882588;29;20036;-76
2021/11/28 07:04:58;;;;;;;36.42;20.15;;;;;;;1.09;100.00;99371.53;4837973;29;20077;-76
2021/11/28 07:07:37;;;;;;;38.92;20.30;;;;;;;1.15;100.00;99378.00;4878078;29;20559;-75
2021/11/28 07:10:06;;;;;;;34.75;19.23;;;;;;;1.12;100.00;99376.44;4878056;29;20475;-76
2021/11/28 07:12:31;;;;;;;33.67;18.75;;;;;;;1.11;100.00;99376.56;4897499;29;20846;-75
2021/11/28 07:14:57;;;;;;;38.10;20.42;;;;;;;1.15;100.00;99380.56;4883307;29;20036;-77
2021/11/28 07:17:23;;;;;;;41.85;20.88;;;;;;;1.14;100.00;99387.47;4881455;29;20075;-76
2021/11/28 07:19:50;;;;;;;35.95;19.02;;;;;;;1.12;100.00;99381.63;4895848;29;20104;-75
2021/11/28 07:22:18;;;;;;;41.17;21.80;;;;;;;1.17;100.00;99396.78;4894270;29;20048;-76
2021/11/28 07:24:47;;;;;;;38.83;21.75;;;;;;;1.16;100.00;99387.38;4878764;29;20036;-76
2021/11/28 07:27:13;;;;;;;41.58;23.15;;;;;;;1.25;100.00;99396.16;4868486;29;20571;-75
2021/11/28 07:29:39;;;;;;;40.85;21.35;;;;;;;1.19;100.00;99389.72;4877557;29;20046;-75
2021/11/28 07:32:05;;;;;;;47.45;23.02;;;;;;;1.25;100.00;99401.34;4868611;29;20041;-76
2021/11/28 07:34:49;;;;;;;41.22;22.42;;;;;;;1.28;100.00;99399.34;4889724;29;20032;-75
2021/11/28 07:37:35;;;;;;;44.33;23.58;;;;;;;1.35;100.00;99399.66;4893772;29;20495;-76
2021/11/28 07:40:03;;;;;;;39.30;21.35;;;;;;;1.36;100.00;99398.72;4892733;29;20092;-75
2021/11/28 07:42:30;;;;;;;43.47;23.33;;;;;;;1.49;100.00;99396.81;4888898;29;20464;-75
2021/11/28 07:44:56;;;;;;;44.75;23.35;;;;;;;1.47;100.00;99388.38;4891935;29;20032;-75
2021/11/28 07:47:59;;;;;;;47.15;23.63;;;;;;;1.47;100.00;99392.69;4883531;29;20071;-75
2021/11/28 07:50:36;;;;;;;47.05;23.55;;;;;;;1.43;100.00;99388.72;4872906;29;20031;-75
2021/11/28 07:53:02;;;;;;;46.78;23.98;;;;;;;1.49;100.00;99393.44;4892586;29;20036;-76
2021/11/28 07:55:28;;;;;;;45.85;23.52;;;;;;;1.50;100.00;99393.28;4871684;29;20439;-76
2021/11/28 07:57:57;;;;;;;43.50;21.52;;;;;;;1.60;100.00;99402.91;4893115;29;20156;-75
2021/11/28 08:00:43;;;;;;;48.08;24.05;;;;;;;1.59;100.00;99401.28;4857530;29;20084;-76
2021/11/28 08:03:18;;;;;;;46.28;25.20;;;;;;;1.59;100.00;99406.44;4890947;29;20092;-77
2021/11/28 08:06:02;;;;;;;44.83;23.92;;;;;;;1.60;100.00;99414.06;4889764;29;20051;-76
2021/11/28 08:08:42;;;;;;;46.15;23.70;;;;;;;1.63;100.00;99418.97;4891271;29;20037;-75
2021/11/28 08:11:29;;;;;;;47.88;24.23;;;;;;;1.60;100.00;99411.50;4861270;29;20044;-77
2021/11/28 08:13:54;;;;;;;53.10;24.85;;;;;;;1.62;100.00;99413.94;4874526;29;20064;-75
2021/11/28 08:16:20;;;;;;;50.55;24.13;;;;;;;1.63;100.00;99415.59;4890165;29;20043;-75
2021/11/28 08:18:47;;;;;;;47.20;23.08;;;;;;;1.63;100.00;99418.97;4896573;29;20449;-76
2021/11/28 08:21:12;;;;;;;50.20;24.65;;;;;;;1.66;100.00;99423.91;4889454;29;20044;-74
2021/11/28 08:23:39;;;;;;;55.88;24.77;;;;;;;1.66;100.00;99426.50;4881236;29;20399;-75
2021/11/28 08:26:05;;;;;;;48.88;24.30;;;;;;;1.77;100.00;99430.81;4893260;29;20052;-76
2021/11/28 08:28:32;;;;;;;44.85;24.38;;;;;;;1.83;100.00;99435.50;4892611;29;20116;-75
2021/11/28 08:30:58;;;;;;;43.70;24.10;;;;;;;1.83;100.00;99438.09;4881138;29;20184;-76
2021/11/28 08:33:42;;;;;;;44.85;23.98;;;;;;;1.74;100.00;99442.22;4887710;29;20037;-76
2021/11/28 08:36:11;;;;;;;43.72;23.02;;;;;;;1.77;100.00;99448.91;4895374;29;20127;-76
2021/11/28 08:38:42;;;;;;;47.65;24.58;;;;;;;1.79;100.00;99447.03;4894793;29;20127;-75
2021/11/28 08:41:10;;;;;;;46.30;23.90;;;;;;;1.79;100.00;99449.63;4893557;29;20036;-76
2021/11/28 08:43:37;;;;;;;45.28;22.58;;;;;;;1.85;100.00;99451.72;4882987;29;20040;-76
2021/11/28 08:46:03;;;;;;;46.88;23.60;;;;;;;1.88;100.00;99455.81;4864688;29;20037;-75
2021/11/28 08:48:28;;;;;;;48.25;24.35;;;;;;;1.95;100.00;99446.63;4895162;29;20071;-77
2021/11/28 08:50:54;;;;;;;43.13;22.80;;;;;;;2.01;100.00;99448.72;4883647;29;20809;-77
2021/11/28 08:53:19;;;;;;;47.30;22.63;;;;;;;2.09;100.00;99445.50;4887416;29;20487;-76
2021/11/28 08:55:45;;;;;;;46.13;23.88;;;;;;;2.17;100.00;99439.72;4880619;29;20051;-76
2021/11/28 08:58:11;;;;;;;42.97;22.80;;;;;;;2.28;100.00;99444.84;4894510;29;20037;-75
2021/11/28 09:00:36;;;;;;;43.67;21.60;;;;;;;2.37;100.00;99438.09;4879853;29;20040;-77
2021/11/28 09:03:02;;;;;;;43.30;21.65;;;;;;;2.39;100.00;99439.59;4895322;29;20044;-75
2021/11/28 09:05:28;;;;;;;38.38;20.50;;;;;;;2.31;100.00;99432.47;4880331;29;20048;-77
2021/11/28 09:07:57;;;;;;;37.97;21.38;;;;;;;2.27;100.00;99445.78;4879358;29;20503;-76
2021/11/28 09:10:23;;;;;;;38.22;20.70;;;;;;;2.17;100.00;99447.47;4873813;29;20037;-76
2021/11/28 09:12:49;;;;;;;40.95;21.35;;;;;;;2.20;100.00;99450.63;4895965;29;20036;-76
2021/11/28 09:15:17;;;;;;;36.60;19.52;;;;;;;2.16;100.00;99451.03;4870020;29;20040;-75
2021/11/28 09:18:29;;;;;;;37.67;19.35;;;;;;;2.14;100.00;99446.78;4891971;29;20036;-76
2021/11/28 09:20:32;;;;;;;37.33;21.33;;;;;;;2.16;100.00;99451.84;4901725;29;20507;-75
2021/11/28 09:25:27;;;;;;;35.63;20.58;;;;;;;2.12;100.00;99451.25;4886554;29;20044;-74
2021/11/28 09:27:56;;;;;;;31.85;19.10;;;;;;;2.21;100.00;99456.66;4874160;29;20626;-74
2021/11/28 09:30:24;;;;;;;36.72;19.67;;;;;;;2.14;100.00;99456.31;4872227;29;21020;-75
2021/11/28 09:32:50;;;;;;;35.67;19.48;;;;;;;2.17;100.00;99450.91;4887280;29;20656;-74
2021/11/28 09:35:15;;;;;;;37.35;20.00;;;;;;;2.23;100.00;99449.59;4887076;29;20044;-74
2021/11/28 09:37:41;;;;;;;37.80;20.80;;;;;;;2.23;100.00;99447.81;4886702;29;20044;-74
2021/11/28 09:40:07;;;;;;;36.75;19.83;;;;;;;2.30;100.00;99446.38;4875455;29;20037;-76
2021/11/28 09:42:45;;;;;;;37.67;20.38;;;;;;;2.30;100.00;99453.31;4894643;29;20567;-74
2021/11/28 09:45:11;;;;;;;38.15;19.70;;;;;;;2.30;100.00;99446.38;4877731;29;20140;-76
2021/11/28 09:47:38;;;;;;;38.63;21.35;;;;;;;2.30;100.00;99448.97;4879929;29;20039;-75
2021/11/28 09:50:07;;;;;;;41.45;20.85;;;;;;;2.39;100.00;99447.38;4894217;29;20043;-76
2021/11/28 09:52:34;;;;;;;38.80;21.60;;;;;;;2.42;100.00;99446.31;4893822;29;20120;-75
2021/11/28 09:55:03;;;;;;;39.38;21.65;;;;;;;2.43;100.00;99445.34;4894620;29;20115;-75
2021/11/28 09:57:29;;;;;;;40.63;22.35;;;;;;;2.43;100.00;99447.94;4891693;29;20040;-75
2021/11/28 09:59:56;;;;;;;40.67;22.48;;;;;;;2.49;100.00;99447.47;4894744;29;20117;-75
2021/11/28 10:02:30;;;;;;;39.03;21.63;;;;;;;2.49;100.00;99437.09;4894027;29;21114;-76
2021/11/28 10:04:58;;;;;;;38.65;19.77;;;;;;;2.51;100.00;99442.97;4862612;29;20048;-76
2021/11/28 10:07:25;;;;;;;38.80;21.30;;;;;;;2.47;100.00;99436.41;4905451;29;20128;-75
2021/11/28 10:09:51;;;;;;;36.53;21.20;;;;;;;2.45;100.00;99430.50;4893182;29;20029;-74
2021/11/28 10:12:31;;;;;;;35.85;20.67;;;;;;;2.43;100.00;99432.41;4879744;29;20081;-77
2021/11/28 10:14:59;;;;;;;42.15;22.23;;;;;;;2.42;100.00;99434.19;4881942;29;20036;-76
2021/11/28 10:17:28;;;;;;;41.45;21.58;;;;;;;2.45;100.00;99428.75;4893881;29;20036;-75
2021/11/28 10:19:56;;;;;;;37.67;22.00;;;;;;;2.45;100.00;99426.19;4889929;29;20068;-76
2021/11/28 10:22:22;;;;;;;39.45;22.15;;;;;;;2.41;100.00;99432.56;4879198;29;20087;-75
2021/11/28 10:25:05;;;;;;;40.95;21.55;;;;;;;2.53;100.00;99428.13;4895049;29;20468;-75
2021/11/28 10:27:36;;;;;;;37.95;21.48;;;;;;;2.50;100.00;99438.72;4894245;29;20093;-75
2021/11/28 10:30:04;;;;;;;38.72;22.98;;;;;;;2.51;100.00;99433.44;4894888;29;20487;-74
2021/11/28 10:32:30;;;;;;;36.67;20.67;;;;;;;2.52;100.00;99427.31;4892512;29;20532;-75
2021/11/28 10:34:55;;;;;;;38.75;21.50;;;;;;;2.52;100.00;99424.72;4895428;29;20139;-75
2021/11/28 10:37:23;;;;;;;38.60;21.98;;;;;;;2.59;100.00;99435.38;4873679;29;20073;-75
2021/11/28 10:39:58;;;;;;;38.05;21.02;;;;;;;2.61;100.00;99433.47;4876836;29;20538;-75
2021/11/28 10:42:27;;;;;;;38.30;21.63;;;;;;;2.61;100.00;99428.31;4896073;29;20478;-77
2021/11/28 10:45:14;;;;;;;37.25;21.30;;;;;;;2.68;100.00;99429.44;4878291;29;20049;-76
2021/11/28 10:47:44;;;;;;;35.22;20.65;;;;;;;2.67;100.00;99427.78;4891326;29;20918;-75
2021/11/28 10:50:21;;;;;;;38.00;22.35;;;;;;;2.65;100.00;99424.50;4893910;29;20052;-76
2021/11/28 10:52:52;;;;;;;34.35;20.42;;;;;;;2.60;100.00;99418.91;4893668;29;20041;-76
2021/11/28 10:55:23;;;;;;;37.80;20.83;;;;;;;2.60;100.00;99425.84;4879139;29;20135;-76
2021/11/28 10:58:06;;;;;;;37.90;21.75;;;;;;;2.61;100.00;99436.06;4888587;29;20518;-75
2021/11/28 11:00:34;;;;;;;37.28;21.48;;;;;;;2.70;100.00;99435.31;4863013;29;20131;-75
2021/11/28 11:03:27;;;;;;;35.42;19.95;;;;;;;2.63;100.00;99438.53;4894992;29;20089;-76
2021/11/28 11:06:11;;;;;;;32.60;20.48;;;;;;;2.54;100.00;99427.16;4880699;29;20044;-76
2021/11/28 11:08:37;;;;;;;34.17;20.95;;;;;;;2.59;100.00;99432.78;4867102;29;20044;-75
2021/11/28 11:11:08;;;;;;;32.85;20.27;;;;;;;2.61;100.00;99435.25;4893521;29;20406;-75
2021/11/28 11:13:50;;;;;;;31.33;18.40;;;;;;;2.50;100.00;99436.94;4878556;29;20053;-76
2021/11/28 11:16:52;;;;;;;;;;;;;;;2.48;100.00;99436.25;4877886;29;20044;-76
2021/11/28 11:19:34;;;;;;;27.98;18.10;;;;;;;2.52;100.00;99432.50;4850081;29;20322;-75
2021/11/28 11:22:05;;;;;;;28.23;18.67;;;;;;;2.61;100.00;99443.03;4866106;29;20056;-76
2021/11/28 11:24:33;;;;;;;28.73;18.83;;;;;;;2.60;100.00;99442.22;4893665;29;20044;-75
2021/11/28 11:27:11;;;;;;;27.48;17.85;;;;;;;2.61;100.00;99441.25;4877954;29;20051;-76
2021/11/28 11:29:39;;;;;;;32.67;19.02;;;;;;;2.66;100.00;99440.88;4880398;29;20036;-76
2021/11/28 11:32:12;;;;;;;35.15;20.20;;;;;;;2.71;100.00;99441.28;4878863;29;20041;-75
2021/11/28 11:34:38;;;;;;;30.58;19.25;;;;;;;2.84;100.00;99448.88;4893083;29;20041;-76
2021/11/28 11:37:08;;;;;;;27.45;17.80;;;;;;;2.87;100.00;99448.63;4883040;29;20543;-75
2021/11/28 11:39:34;;;;;;;30.88;19.17;;;;;;;2.90;100.00;99453.53;4879646;29;20594;-75